createdAt,value
2018-07-31T00:00:29.032Z,75.27
2018-07-31T00:01:37.679Z,76.05
2018-07-31T00:02:46.608Z,75.85
2018-07-31T00:03:55.515Z,75.85
2018-07-31T00:05:04.161Z,76.24
2018-07-31T00:06:12.808Z,76.05
2018-07-31T00:07:21.456Z,75.53
2018-07-31T00:08:30.117Z,76.1
2018-07-31T00:09:38.763Z,76.68
2018-07-31T00:10:47.418Z,76.4
2018-07-31T00:11:56.060Z,76.3
2018-07-31T00:13:04.717Z,76.5
2018-07-31T00:14:13.364Z,76.78
2018-07-31T00:15:22.281Z,77.17
2018-07-31T00:16:31.185Z,76.88
2018-07-31T00:17:39.845Z,77.26
2018-07-31T00:18:48.494Z,77.26
2018-07-31T00:19:57.146Z,78.61
2018-07-31T00:21:05.788Z,78.33
2018-07-31T00:22:14.441Z,78.52
2018-07-31T00:23:23.095Z,78.61
2018-07-31T00:24:31.746Z,77.75
2018-07-31T00:25:40.406Z,78.61
2018-07-31T00:26:49.046Z,78.61
2018-07-31T00:27:57.972Z,78.52
2018-07-31T00:29:06.616Z,79.29
2018-07-31T00:30:15.275Z,79.54
2018-07-31T00:31:23.920Z,78.81
2018-07-31T00:32:32.574Z,78.81
2018-07-31T00:33:41.221Z,78.81
2018-07-31T00:34:49.879Z,79.39
2018-07-31T00:35:58.780Z,79.19
2018-07-31T00:37:07.431Z,79.39
2018-07-31T00:38:16.079Z,79.1
2018-07-31T00:39:24.739Z,79.29
2018-07-31T00:40:33.387Z,79.83
2018-07-31T00:41:42.031Z,79.64
2018-07-31T00:42:50.681Z,79.83
2018-07-31T00:43:59.324Z,80.6
2018-07-31T00:45:08.251Z,80.54
2018-07-31T00:46:16.898Z,81.22
2018-07-31T00:47:25.554Z,80.64
2018-07-31T00:48:34.463Z,80.51
2018-07-31T00:49:43.121Z,80.51
2018-07-31T00:50:51.773Z,80.12
2018-07-31T00:52:00.427Z,80.12
2018-07-31T00:53:09.332Z,80.99
2018-07-31T00:54:17.985Z,81.18
2018-07-31T00:55:26.638Z,81.66
2018-07-31T00:56:35.553Z,81.09
2018-07-31T00:57:44.197Z,80.79
2018-07-31T00:58:52.848Z,81.37
2018-07-31T01:00:01.501Z,81.76
2018-07-31T01:01:10.144Z,82.05
2018-07-31T01:02:18.797Z,81.95
2018-07-31T01:03:27.971Z,81.27
2018-07-31T01:04:36.621Z,81.57
2018-07-31T01:05:45.273Z,82.05
2018-07-31T01:06:53.930Z,81.76
2018-07-31T01:08:02.576Z,82.24
2018-07-31T01:09:11.224Z,81.95
2018-07-31T01:10:19.872Z,82.14
2018-07-31T01:11:28.527Z,82.05
2018-07-31T01:12:37.172Z,82.92
2018-07-31T01:13:45.830Z,82.72
2018-07-31T01:14:54.736Z,82.43
2018-07-31T01:16:03.395Z,83.11
2018-07-31T01:17:12.060Z,83.01
2018-07-31T01:18:20.694Z,83.2
2018-07-31T01:19:29.342Z,82.82
2018-07-31T01:20:37.994Z,82.87
2018-07-31T01:21:46.647Z,83.64
2018-07-31T01:22:55.302Z,82.97
2018-07-31T01:24:03.955Z,83.26
2018-07-31T01:25:13.123Z,83.64
2018-07-31T01:26:21.775Z,83.26
2018-07-31T01:27:30.424Z,83.3
2018-07-31T01:28:39.073Z,84.03
2018-07-31T01:29:47.720Z,83.94
2018-07-31T01:30:56.376Z,83.84
2018-07-31T01:32:05.025Z,84.03
2018-07-31T01:33:13.946Z,84.22
2018-07-31T01:34:22.853Z,84.42
2018-07-31T01:35:31.504Z,84.22
2018-07-31T01:36:40.155Z,85.47
2018-07-31T01:37:48.807Z,85.57
2018-07-31T01:38:57.458Z,85.19
2018-07-31T01:40:06.365Z,85.38
2018-07-31T01:41:15.277Z,85.67
2018-07-31T01:42:23.930Z,85.86
2018-07-31T01:43:32.844Z,85.67
2018-07-31T01:44:42.017Z,85.47
2018-07-31T01:45:50.673Z,86.15
2018-07-31T01:46:59.315Z,85.86
2018-07-31T01:48:08.499Z,86.15
2018-07-31T01:49:17.138Z,85.96
2018-07-31T01:50:25.793Z,86.15
2018-07-31T01:51:34.440Z,86.05
2018-07-31T01:52:43.097Z,86.54
2018-07-31T01:53:51.743Z,87.79
2018-07-31T01:55:00.390Z,87.4
2018-07-31T01:56:09.306Z,86.44
2018-07-31T01:57:17.952Z,87.7
2018-07-31T01:58:26.610Z,87.21
2018-07-31T01:59:35.304Z,87.02
2018-07-31T02:00:43.911Z,87.6
2018-07-31T02:01:52.560Z,87.21
2018-07-31T02:03:01.220Z,87.02
2018-07-31T02:04:09.867Z,86.92
2018-07-31T02:05:18.518Z,86.82
2018-07-31T02:06:27.160Z,86.92
2018-07-31T02:07:36.144Z,87.02
2018-07-31T02:08:44.729Z,87.64
2018-07-31T02:09:53.381Z,87.98
2018-07-31T02:11:02.286Z,87.98
2018-07-31T02:12:10.938Z,87.79
2018-07-31T02:13:19.593Z,87.6
2018-07-31T02:14:28.244Z,87.02
2018-07-31T02:15:37.158Z,87.98
2018-07-31T02:16:45.798Z,87.6
2018-07-31T02:17:54.452Z,88.65
2018-07-31T02:19:03.099Z,89.33
2018-07-31T02:20:11.759Z,88.37
2018-07-31T02:21:20.398Z,88.65
2018-07-31T02:22:29.320Z,88.65
2018-07-31T02:23:37.964Z,88.46
2018-07-31T02:24:46.625Z,88.37
2018-07-31T02:25:55.523Z,89.23
2018-07-31T02:27:04.435Z,89.04
2018-07-31T02:28:13.183Z,89.33
2018-07-31T02:29:22.120Z,88.95
2018-07-31T02:30:30.764Z,88.65
2018-07-31T02:31:39.411Z,89.72
2018-07-31T02:32:48.064Z,90.3
2018-07-31T02:33:56.987Z,89.81
2018-07-31T02:35:05.904Z,89.53
2018-07-31T02:36:15.078Z,89.86
2018-07-31T02:37:24.003Z,89.77
2018-07-31T02:38:32.912Z,90.34
2018-07-31T02:39:41.576Z,90.64
2018-07-31T02:40:50.763Z,90.54
2018-07-31T02:41:59.414Z,90.92
2018-07-31T02:43:08.318Z,90.73
2018-07-31T02:44:16.982Z,91.21
2018-07-31T02:45:25.902Z,90.64
2018-07-31T02:46:34.809Z,90.64
2018-07-31T02:47:43.461Z,91.02
2018-07-31T02:48:52.117Z,91.69
2018-07-31T02:50:00.775Z,91.79
2018-07-31T02:51:09.427Z,91.99
2018-07-31T02:52:18.082Z,91.69
2018-07-31T02:53:26.728Z,92.08
2018-07-31T02:54:35.383Z,91.5
2018-07-31T02:55:44.033Z,91.6
2018-07-31T02:56:52.702Z,92.18
2018-07-31T02:58:01.622Z,92.27
2018-07-31T02:59:10.544Z,92.18
2018-07-31T03:00:19.194Z,92.37
2018-07-31T03:01:27.849Z,92.18
2018-07-31T03:02:36.495Z,93.24
2018-07-31T03:03:45.151Z,92.47
2018-07-31T03:04:53.798Z,92.27
2018-07-31T03:06:02.461Z,92.27
2018-07-31T03:07:11.380Z,92.18
2018-07-31T03:08:20.030Z,92.37
2018-07-31T03:09:28.676Z,92.85
2018-07-31T03:10:37.330Z,92.37
2018-07-31T03:11:45.990Z,92.76
2018-07-31T03:12:54.649Z,92.56
2018-07-31T03:14:03.301Z,93.72
2018-07-31T03:15:11.944Z,93.72
2018-07-31T03:16:20.876Z,93.24
2018-07-31T03:17:29.797Z,92.47
2018-07-31T03:18:38.446Z,92.18
2018-07-31T03:19:47.092Z,93.14
2018-07-31T03:20:55.750Z,93.52
2018-07-31T03:22:04.659Z,93.14
2018-07-31T03:23:13.313Z,93.14
2018-07-31T03:24:22.490Z,93.43
2018-07-31T03:25:31.142Z,92.85
2018-07-31T03:26:40.124Z,93.81
2018-07-31T03:27:48.780Z,93.33
2018-07-31T03:28:57.699Z,93.14
2018-07-31T03:30:06.347Z,93.91
2018-07-31T03:31:15.538Z,93.52
2018-07-31T03:32:24.191Z,93.72
2018-07-31T03:33:32.843Z,93.91
2018-07-31T03:34:41.487Z,94.2
2018-07-31T03:35:50.136Z,93.81
2018-07-31T03:36:58.785Z,94.29
2018-07-31T03:38:07.964Z,94.29
2018-07-31T03:39:16.877Z,94.06
2018-07-31T03:40:25.790Z,94.25
2018-07-31T03:41:34.436Z,94.1
2018-07-31T03:42:43.092Z,94.44
2018-07-31T03:43:51.735Z,94.73
2018-07-31T03:45:00.650Z,94.44
2018-07-31T03:46:09.300Z,93.77
2018-07-31T03:47:17.950Z,94.54
2018-07-31T03:48:26.594Z,93.96
2018-07-31T03:49:35.243Z,94.64
2018-07-31T03:50:43.894Z,94.15
2018-07-31T03:51:52.557Z,94.15
2018-07-31T03:53:01.195Z,94.92
2018-07-31T03:54:10.372Z,95.02
2018-07-31T03:55:19.021Z,95.21
2018-07-31T03:56:27.742Z,94.92
2018-07-31T03:57:36.662Z,95.31
2018-07-31T03:58:45.313Z,94.82
2018-07-31T03:59:53.960Z,95.31
2018-07-31T04:01:02.616Z,95.4
2018-07-31T04:02:11.262Z,94.92
2018-07-31T04:03:19.910Z,94.92
2018-07-31T04:04:28.825Z,95.4
2018-07-31T04:05:37.801Z,95.89
2018-07-31T04:06:46.453Z,96.56
2018-07-31T04:07:55.105Z,95.79
2018-07-31T04:09:03.753Z,96.17
2018-07-31T04:10:12.399Z,96.17
2018-07-31T04:11:21.052Z,95.21
2018-07-31T04:12:29.700Z,95.5
2018-07-31T04:13:38.353Z,95.4
2018-07-31T04:14:46.995Z,95.31
2018-07-31T04:15:55.652Z,95.4
2018-07-31T04:17:04.352Z,94.92
2018-07-31T04:18:12.949Z,94.73
2018-07-31T04:19:21.595Z,94.82
2018-07-31T04:20:30.246Z,94.92
2018-07-31T04:21:38.896Z,95.02
2018-07-31T04:22:47.546Z,94.92
2018-07-31T04:23:56.196Z,94.68
2018-07-31T04:25:04.840Z,95.4
2018-07-31T04:26:13.755Z,94.82
2018-07-31T04:27:22.401Z,95.02
2018-07-31T04:28:31.055Z,95.21
2018-07-31T04:29:39.699Z,94.44
2018-07-31T04:30:48.349Z,94.92
2018-07-31T04:31:56.997Z,95.6
2018-07-31T04:33:05.650Z,95.69
2018-07-31T04:34:14.299Z,95.31
2018-07-31T04:35:22.949Z,95.12
2018-07-31T04:36:31.595Z,95.4
2018-07-31T04:37:40.247Z,95.4
2018-07-31T04:38:48.892Z,94.92
2018-07-31T04:39:57.541Z,95.02
2018-07-31T04:41:06.502Z,95.12
2018-07-31T04:42:15.435Z,94.92
2018-07-31T04:43:24.089Z,94.73
2018-07-31T04:44:32.734Z,94.73
2018-07-31T04:45:41.389Z,94.82
2018-07-31T04:46:50.029Z,94.64
2018-07-31T04:47:58.689Z,94.25
2018-07-31T04:49:07.598Z,94.25
2018-07-31T04:50:16.298Z,94.34
2018-07-31T04:51:25.152Z,94.44
2018-07-31T04:52:33.813Z,95.21
2018-07-31T04:53:42.461Z,95.02
2018-07-31T04:54:51.115Z,95.02
2018-07-31T04:56:00.278Z,94.06
2018-07-31T04:57:08.927Z,94.64
2018-07-31T04:58:17.579Z,94.25
2018-07-31T04:59:26.229Z,94.92
2018-07-31T05:00:35.151Z,94.92
2018-07-31T05:01:43.790Z,94.92
2018-07-31T05:02:52.443Z,95.02
2018-07-31T05:04:01.086Z,95.12
2018-07-31T05:05:09.745Z,94.92
2018-07-31T05:06:18.650Z,94.92
2018-07-31T05:07:27.304Z,94.78
2018-07-31T05:08:35.944Z,94.82
2018-07-31T05:09:44.866Z,95.02
2018-07-31T05:10:53.506Z,94.97
2018-07-31T05:12:02.488Z,93.91
2018-07-31T05:13:11.134Z,94.29
2018-07-31T05:14:20.061Z,93.81
2018-07-31T05:15:28.711Z,93.81
2018-07-31T05:16:37.360Z,94.1
2018-07-31T05:17:46.008Z,93.72
2018-07-31T05:18:54.654Z,93.81
2018-07-31T05:20:03.314Z,93.43
2018-07-31T05:21:11.956Z,93.33
2018-07-31T05:22:20.609Z,92.8
2018-07-31T05:23:29.250Z,93.09
2018-07-31T05:24:37.910Z,92.32
2018-07-31T05:25:46.555Z,92.32
2018-07-31T05:26:55.208Z,91.83
2018-07-31T05:28:03.852Z,91.98
2018-07-31T05:29:12.511Z,91.2
2018-07-31T05:30:21.158Z,90.72
2018-07-31T05:31:29.811Z,90.53
2018-07-31T05:32:38.522Z,90.34
2018-07-31T05:33:47.104Z,89.57
2018-07-31T05:34:55.758Z,89.76
2018-07-31T05:36:04.411Z,89.23
2018-07-31T05:37:13.063Z,89.03
2018-07-31T05:38:21.704Z,89.03
2018-07-31T05:39:30.376Z,88.75
2018-07-31T05:40:39.270Z,89.13
2018-07-31T05:41:47.931Z,88.84
2018-07-31T05:42:56.571Z,88.36
2018-07-31T05:44:05.226Z,88.26
2018-07-31T05:45:13.873Z,88.45
2018-07-31T05:46:22.534Z,87.78
2018-07-31T05:47:31.181Z,87.3
2018-07-31T05:48:40.101Z,88.26
2018-07-31T05:49:49.012Z,87.97
2018-07-31T05:50:57.671Z,87.68
2018-07-31T05:52:06.318Z,87.68
2018-07-31T05:53:14.966Z,87.59
2018-07-31T05:54:23.610Z,87.4
2018-07-31T05:55:32.264Z,87.49
2018-07-31T05:56:40.925Z,87.49
2018-07-31T05:57:49.573Z,86.82
2018-07-31T05:58:58.274Z,87.1
2018-07-31T06:00:07.136Z,87.34
2018-07-31T06:01:15.800Z,87.2
2018-07-31T06:02:24.439Z,87.78
2018-07-31T06:03:33.104Z,87.59
2018-07-31T06:04:41.734Z,87.68
2018-07-31T06:05:50.667Z,87.68
2018-07-31T06:06:59.315Z,87.82
2018-07-31T06:08:07.970Z,87.53
2018-07-31T06:09:16.611Z,87.44
2018-07-31T06:10:25.268Z,87.01
2018-07-31T06:11:33.924Z,87.1
2018-07-31T06:12:42.577Z,87.24
2018-07-31T06:13:51.229Z,87.24
2018-07-31T06:14:59.872Z,86.66
2018-07-31T06:16:08.796Z,86.38
2018-07-31T06:17:17.440Z,85.89
2018-07-31T06:18:26.104Z,85.99
2018-07-31T06:19:34.746Z,85.99
2018-07-31T06:20:43.673Z,85.6
2018-07-31T06:21:52.318Z,85.41
2018-07-31T06:23:01.498Z,85.7
2018-07-31T06:24:10.141Z,85.5
2018-07-31T06:25:19.055Z,86.03
2018-07-31T06:26:27.703Z,86.32
2018-07-31T06:27:36.369Z,85.94
2018-07-31T06:28:45.015Z,85.06
2018-07-31T06:29:53.660Z,85.16
2018-07-31T06:31:02.581Z,84.88
2018-07-31T06:32:11.228Z,84.78
2018-07-31T06:33:19.884Z,84
2018-07-31T06:34:28.534Z,84.58
2018-07-31T06:35:37.453Z,84.39
2018-07-31T06:36:46.356Z,83.95
2018-07-31T06:37:55.282Z,83.66
2018-07-31T06:39:03.927Z,82.6
2018-07-31T06:40:12.582Z,82.98
2018-07-31T06:41:21.225Z,82.89
2018-07-31T06:42:29.881Z,82.21
2018-07-31T06:43:38.529Z,81.53
2018-07-31T06:44:47.180Z,80.76
2018-07-31T06:45:55.825Z,80.8
2018-07-31T06:47:04.476Z,81.09
2018-07-31T06:48:13.131Z,80.12
2018-07-31T06:49:21.822Z,80.03
2018-07-31T06:50:30.434Z,80.46
2018-07-31T06:51:39.081Z,79.97
2018-07-31T06:52:47.995Z,78.81
2018-07-31T06:53:56.645Z,78.52
2018-07-31T06:55:05.567Z,78.33
2018-07-31T06:56:14.212Z,78.81
2018-07-31T06:57:22.862Z,78.36
2018-07-31T06:58:31.515Z,78.08
2018-07-31T06:59:40.169Z,77.5
2018-07-31T07:00:48.818Z,77.3
2018-07-31T07:01:57.776Z,77.05
2018-07-31T07:03:06.388Z,76.37
2018-07-31T07:04:15.306Z,75.89
2018-07-31T07:05:23.957Z,76.08
2018-07-31T07:06:32.876Z,75.02
2018-07-31T07:07:41.523Z,75.63
2018-07-31T07:08:50.172Z,75.44
2018-07-31T07:09:58.829Z,75.34
2018-07-31T07:11:07.482Z,74.08
2018-07-31T07:12:16.127Z,73.99
2018-07-31T07:13:25.038Z,73.99
2018-07-31T07:14:33.697Z,74.08
2018-07-31T07:15:42.612Z,73.79
2018-07-31T07:16:51.262Z,73.93
2018-07-31T07:17:59.910Z,73.02
2018-07-31T07:19:08.566Z,73.02
2018-07-31T07:20:17.216Z,73.11
2018-07-31T07:21:25.870Z,72.28
2018-07-31T07:22:34.831Z,73.05
2018-07-31T07:23:43.760Z,73.05
2018-07-31T07:24:52.411Z,72.18
2018-07-31T07:26:01.334Z,72.18
2018-07-31T07:27:10.259Z,71.99
2018-07-31T07:28:19.176Z,71.99
2018-07-31T07:29:27.827Z,72.09
2018-07-31T07:30:36.480Z,72.28
2018-07-31T07:31:45.134Z,71.89
2018-07-31T07:32:54.047Z,71.41
2018-07-31T07:34:02.750Z,71.31
2018-07-31T07:35:11.368Z,72.28
2018-07-31T07:36:20.286Z,72.61
2018-07-31T07:37:29.207Z,72.41
2018-07-31T07:38:38.123Z,72.31
2018-07-31T07:39:46.777Z,72.89
2018-07-31T07:40:55.425Z,72.12
2018-07-31T07:42:04.353Z,71.34
2018-07-31T07:43:13.006Z,69.99
2018-07-31T07:44:21.661Z,70.18
2018-07-31T07:45:30.576Z,70.41
2018-07-31T07:46:39.225Z,70.03
2018-07-31T07:47:47.885Z,70.12
2018-07-31T07:48:56.797Z,70.31
2018-07-31T07:50:05.722Z,70.12
2018-07-31T07:51:14.369Z,70.03
2018-07-31T07:52:23.020Z,69.18
2018-07-31T07:53:31.678Z,69.48
2018-07-31T07:54:40.336Z,68.89
2018-07-31T07:55:48.990Z,69.67
2018-07-31T07:56:57.646Z,68.21
2018-07-31T07:58:06.301Z,68.79
2018-07-31T07:59:14.958Z,68.7
2018-07-31T08:00:23.609Z,68.12
2018-07-31T08:01:32.259Z,68.21
2018-07-31T08:02:40.921Z,68.51
2018-07-31T08:03:49.634Z,68.41
2018-07-31T08:04:58.232Z,68.31
2018-07-31T08:06:06.881Z,68.63
2018-07-31T08:07:15.816Z,67.54
2018-07-31T08:08:24.448Z,68.25
2018-07-31T08:09:33.105Z,68.63
2018-07-31T08:10:41.765Z,68.05
2018-07-31T08:11:50.415Z,67.96
2018-07-31T08:12:59.065Z,67.86
2018-07-31T08:14:07.985Z,67.86
2018-07-31T08:15:17.163Z,67.47
2018-07-31T08:16:25.819Z,67.18
2018-07-31T08:17:34.471Z,67.86
2018-07-31T08:18:43.126Z,67.57
2018-07-31T08:19:52.048Z,67.41
2018-07-31T08:21:00.709Z,66.6
2018-07-31T08:22:09.626Z,66.63
2018-07-31T08:23:18.276Z,66.4
2018-07-31T08:24:26.930Z,66.14
2018-07-31T08:25:35.583Z,65.66
2018-07-31T08:26:44.245Z,65.27
2018-07-31T08:27:52.946Z,64.4
2018-07-31T08:29:01.549Z,64.72
2018-07-31T08:30:10.731Z,66.47
2018-07-31T08:31:19.388Z,66.56
2018-07-31T08:32:28.037Z,65.98
2018-07-31T08:33:36.994Z,65.11
2018-07-31T08:34:45.608Z,63.65
2018-07-31T08:35:54.266Z,64.33
2018-07-31T08:37:02.915Z,62.97
2018-07-31T08:38:11.569Z,62.77
2018-07-31T08:39:20.221Z,62.51
2018-07-31T08:40:28.874Z,62.13
2018-07-31T08:41:37.539Z,61.93
2018-07-31T08:42:46.185Z,61.93
2018-07-31T08:43:54.844Z,62.23
2018-07-31T08:45:03.488Z,62.13
2018-07-31T08:46:12.152Z,62.06
2018-07-31T08:47:21.060Z,63.2
2018-07-31T08:48:29.989Z,61.77
2018-07-31T08:49:38.898Z,61.47
2018-07-31T08:50:47.560Z,61.87
2018-07-31T08:51:56.212Z,61.28
2018-07-31T08:53:04.868Z,60.79
2018-07-31T08:54:13.514Z,60.7
2018-07-31T08:55:22.172Z,60.7
2018-07-31T08:56:30.829Z,61.18
2018-07-31T08:57:39.484Z,59.33
2018-07-31T08:58:48.410Z,58.69
2018-07-31T08:59:57.320Z,58.59
2018-07-31T09:01:05.980Z,58.97
2018-07-31T09:02:14.624Z,59.46
2018-07-31T09:03:23.296Z,60.05
2018-07-31T09:04:32.206Z,59.85
2018-07-31T09:05:41.147Z,59.46
2018-07-31T09:06:49.798Z,59.88
2018-07-31T09:07:58.462Z,59.39
2018-07-31T09:09:07.129Z,59.1
2018-07-31T09:10:15.764Z,58.35
2018-07-31T09:11:24.417Z,57.37
2018-07-31T09:12:33.081Z,56.79
2018-07-31T09:13:41.735Z,58.25
2018-07-31T09:14:50.386Z,55.94
2018-07-31T09:15:59.038Z,55.55
2018-07-31T09:17:07.958Z,56.23
2018-07-31T09:18:16.879Z,55.62
2018-07-31T09:19:25.534Z,56.01
2018-07-31T09:20:34.457Z,54.48
2018-07-31T09:21:43.104Z,54.65
2018-07-31T09:22:51.768Z,54.48
2018-07-31T09:24:00.419Z,55.55
2018-07-31T09:25:09.077Z,55.55
2018-07-31T09:26:17.722Z,54.38
2018-07-31T09:27:26.387Z,54.77
2018-07-31T09:28:35.039Z,56.14
2018-07-31T09:29:43.962Z,54.9
2018-07-31T09:30:53.147Z,55.16
2018-07-31T09:32:01.644Z,54.31
2018-07-31T09:33:10.311Z,54.11
2018-07-31T09:34:18.969Z,53.92
2018-07-31T09:35:27.626Z,54.31
2018-07-31T09:36:36.283Z,53.34
2018-07-31T09:37:44.928Z,52.36
2018-07-31T09:38:53.583Z,52.46
2018-07-31T09:40:02.243Z,52.95
2018-07-31T09:41:10.888Z,53.92
2018-07-31T09:42:19.544Z,51.61
2018-07-31T09:43:28.201Z,51.21
2018-07-31T09:44:36.863Z,52.39
2018-07-31T09:45:45.513Z,53.46
2018-07-31T09:46:54.172Z,52.19
2018-07-31T09:48:02.825Z,52.09
2018-07-31T09:49:11.485Z,52.68
2018-07-31T09:50:20.148Z,51.61
2018-07-31T09:51:29.062Z,51.31
2018-07-31T09:52:37.716Z,50.73
2018-07-31T09:53:46.374Z,51.61
2018-07-31T09:54:55.039Z,51.02
2018-07-31T09:56:03.697Z,51.21
2018-07-31T09:57:12.395Z,51.9
2018-07-31T09:58:21.008Z,51.61
2018-07-31T09:59:29.669Z,50.63
2018-07-31T10:00:38.595Z,50.82
2018-07-31T10:01:47.252Z,51.21
2018-07-31T10:02:56.163Z,52.19
2018-07-31T10:04:05.096Z,51.31
2018-07-31T10:05:13.793Z,49.66
2018-07-31T10:06:22.408Z,48.88
2018-07-31T10:07:31.058Z,48.88
2018-07-31T10:08:39.716Z,49.49
2018-07-31T10:09:48.634Z,49.1
2018-07-31T10:10:57.578Z,47.83
2018-07-31T10:12:06.292Z,47.75
2018-07-31T10:13:14.879Z,47.75
2018-07-31T10:14:23.543Z,47.66
2018-07-31T10:15:32.196Z,46.5
2018-07-31T10:16:40.865Z,46.8
2018-07-31T10:17:49.539Z,46.89
2018-07-31T10:18:58.174Z,46.99
2018-07-31T10:20:06.830Z,45.82
2018-07-31T10:21:15.491Z,45.62
2018-07-31T10:22:24.408Z,45.62
2018-07-31T10:23:33.066Z,45.62
2018-07-31T10:24:41.722Z,45.53
2018-07-31T10:25:50.380Z,45.43
2018-07-31T10:26:59.033Z,45.53
2018-07-31T10:28:07.689Z,46.41
2018-07-31T10:29:16.343Z,46.88
2018-07-31T10:30:25.257Z,47.27
2018-07-31T10:31:33.920Z,47.75
2018-07-31T10:32:42.578Z,47.19
2018-07-31T10:33:51.233Z,46.5
2018-07-31T10:34:59.884Z,46.41
2018-07-31T10:36:08.547Z,46.31
2018-07-31T10:37:17.198Z,45.72
2018-07-31T10:38:26.175Z,46.04
2018-07-31T10:39:35.091Z,45.14
2018-07-31T10:40:43.758Z,44.96
2018-07-31T10:41:52.412Z,45.16
2018-07-31T10:43:01.072Z,45.65
2018-07-31T10:44:09.720Z,45.36
2018-07-31T10:45:18.378Z,45.65
2018-07-31T10:46:27.041Z,44.77
2018-07-31T10:47:35.698Z,46.33
2018-07-31T10:48:44.361Z,46.43
2018-07-31T10:49:53.270Z,45.72
2018-07-31T10:51:01.945Z,46.5
2018-07-31T10:52:10.885Z,46.41
2018-07-31T10:53:19.811Z,46.99
2018-07-31T10:54:28.458Z,46.99
2018-07-31T10:55:37.118Z,47.48
2018-07-31T10:56:45.769Z,48.05
2018-07-31T10:57:54.477Z,47.75
2018-07-31T10:59:03.410Z,48.14
2018-07-31T11:00:12.097Z,48.34
2018-07-31T11:01:21.068Z,48.73
2018-07-31T11:02:29.733Z,47.95
2018-07-31T11:03:38.387Z,49.51
2018-07-31T11:04:47.039Z,48.93
2018-07-31T11:05:55.695Z,47.95
2018-07-31T11:07:04.354Z,47.27
2018-07-31T11:08:13.021Z,46.68
2018-07-31T11:09:21.677Z,46.48
2018-07-31T11:10:30.337Z,46.39
2018-07-31T11:11:38.989Z,46.19
2018-07-31T11:12:47.655Z,45.7
2018-07-31T11:13:56.310Z,46.41
2018-07-31T11:15:04.970Z,46.6
2018-07-31T11:16:13.616Z,46.72
2018-07-31T11:17:22.281Z,45.26
2018-07-31T11:18:30.934Z,45.55
2018-07-31T11:19:39.627Z,46.55
2018-07-31T11:20:48.264Z,45.57
2018-07-31T11:21:56.910Z,45.67
2018-07-31T11:23:05.574Z,45.26
2018-07-31T11:24:14.492Z,45.28
2018-07-31T11:25:23.146Z,45.55
2018-07-31T11:26:31.794Z,45.26
2018-07-31T11:27:40.459Z,45.84
2018-07-31T11:28:49.115Z,45.84
2018-07-31T11:29:58.107Z,45.55
2018-07-31T11:31:06.750Z,46.33
2018-07-31T11:32:15.413Z,45.65
2018-07-31T11:33:24.065Z,45.55
2018-07-31T11:34:32.719Z,45.55
2018-07-31T11:35:41.651Z,44.77
2018-07-31T11:36:50.304Z,45.16
2018-07-31T11:37:58.963Z,44.96
2018-07-31T11:39:07.613Z,45.57
2018-07-31T11:40:16.270Z,45.37
2018-07-31T11:41:24.932Z,44.49
2018-07-31T11:42:33.586Z,44.69
2018-07-31T11:43:42.251Z,45.36
2018-07-31T11:44:51.159Z,44.87
2018-07-31T11:45:59.823Z,45.26
2018-07-31T11:47:08.477Z,45.36
2018-07-31T11:48:17.141Z,43.91
2018-07-31T11:49:25.788Z,44.4
2018-07-31T11:50:34.447Z,44.3
2018-07-31T11:51:43.109Z,43.54
2018-07-31T11:52:51.775Z,42.36
2018-07-31T11:54:00.423Z,41.49
2018-07-31T11:55:09.082Z,41.49
2018-07-31T11:56:17.737Z,42.48
2018-07-31T11:57:26.676Z,44.71
2018-07-31T11:58:35.854Z,41.58
2018-07-31T11:59:44.765Z,41.68
2018-07-31T12:00:53.427Z,41.31
2018-07-31T12:02:02.085Z,40.72
2018-07-31T12:03:11.009Z,40.53
2018-07-31T12:04:19.706Z,39.94
2018-07-31T12:05:28.588Z,40.53
2018-07-31T12:06:37.499Z,39.56
2018-07-31T12:07:46.740Z,39.37
2018-07-31T12:08:55.392Z,39.07
2018-07-31T12:10:04.059Z,38.59
2018-07-31T12:11:12.704Z,37.71
2018-07-31T12:12:21.372Z,39.07
2018-07-31T12:13:30.029Z,39.37
2018-07-31T12:14:38.687Z,39.37
2018-07-31T12:15:47.333Z,39.47
2018-07-31T12:16:56.274Z,38.98
2018-07-31T12:18:04.937Z,39.07
2018-07-31T12:19:13.596Z,39.56
2018-07-31T12:20:22.258Z,39.37
2018-07-31T12:21:30.907Z,39.27
2018-07-31T12:22:39.568Z,39.15
2018-07-31T12:23:48.242Z,39.66
2018-07-31T12:24:57.161Z,39.37
2018-07-31T12:26:05.807Z,40.16
2018-07-31T12:27:14.468Z,39.84
2018-07-31T12:28:23.127Z,39.74
2018-07-31T12:29:31.795Z,40.53
2018-07-31T12:30:40.441Z,40.8
2018-07-31T12:31:49.109Z,41.19
2018-07-31T12:32:58.352Z,40.9
2018-07-31T12:34:07.719Z,40.8
2018-07-31T12:35:16.374Z,40.5
2018-07-31T12:36:25.300Z,41.78
2018-07-31T12:37:34.213Z,42.05
2018-07-31T12:38:42.867Z,42.93
2018-07-31T12:39:51.528Z,42.42
2018-07-31T12:41:00.186Z,42.35
2018-07-31T12:42:08.842Z,42.44
2018-07-31T12:43:17.493Z,42.25
2018-07-31T12:44:26.156Z,41.66
2018-07-31T12:45:35.074Z,42.36
2018-07-31T12:46:43.730Z,44.32
2018-07-31T12:47:52.381Z,44.62
2018-07-31T12:49:01.041Z,43.34
2018-07-31T12:50:09.757Z,42.36
2018-07-31T12:51:18.356Z,42.27
2018-07-31T12:52:27.007Z,41.58
2018-07-31T12:53:35.667Z,41.68
2018-07-31T12:54:44.583Z,41.78
2018-07-31T12:55:53.241Z,41.97
2018-07-31T12:57:01.901Z,42.07
2018-07-31T12:58:10.557Z,41.78
2018-07-31T12:59:19.213Z,41.88
2018-07-31T13:00:27.870Z,42.46
2018-07-31T13:01:36.838Z,41.78
2018-07-31T13:02:45.450Z,42.36
2018-07-31T13:03:54.108Z,42.56
2018-07-31T13:05:03.036Z,42.46
2018-07-31T13:06:11.705Z,42.66
2018-07-31T13:07:20.357Z,43.24
2018-07-31T13:08:29.018Z,41.97
2018-07-31T13:09:37.673Z,41.97
2018-07-31T13:10:46.339Z,41.21
2018-07-31T13:11:54.991Z,42.19
2018-07-31T13:13:03.648Z,41.8
2018-07-31T13:14:12.633Z,42.36
2018-07-31T13:15:21.290Z,41.89
2018-07-31T13:16:29.952Z,42.07
2018-07-31T13:17:38.610Z,42.36
2018-07-31T13:18:47.297Z,42.07
2018-07-31T13:19:56.189Z,42.66
2018-07-31T13:21:05.121Z,42.85
2018-07-31T13:22:14.040Z,43.34
2018-07-31T13:23:22.697Z,43.42
2018-07-31T13:24:31.350Z,44.3
2018-07-31T13:25:40.276Z,44.4
2018-07-31T13:26:48.930Z,43.71
2018-07-31T13:27:57.590Z,45.45
2018-07-31T13:29:06.238Z,44.09
2018-07-31T13:30:14.899Z,44.38
2018-07-31T13:31:23.822Z,43.81
2018-07-31T13:32:32.477Z,44.59
2018-07-31T13:33:41.132Z,43.03
2018-07-31T13:34:49.797Z,44.49
2018-07-31T13:35:58.447Z,44.49
2018-07-31T13:37:07.403Z,45.36
2018-07-31T13:38:16.040Z,45.55
2018-07-31T13:39:24.704Z,45.45
2018-07-31T13:40:33.360Z,45.84
2018-07-31T13:41:42.027Z,46.72
2018-07-31T13:42:51.225Z,46.82
2018-07-31T13:44:00.047Z,46.53
2018-07-31T13:45:08.524Z,46.82
2018-07-31T13:46:17.182Z,46.94
2018-07-31T13:47:25.829Z,45.55
2018-07-31T13:48:34.488Z,45.28
2018-07-31T13:49:43.149Z,45.55
2018-07-31T13:50:51.808Z,45.57
2018-07-31T13:52:00.470Z,45.45
2018-07-31T13:53:09.114Z,45.67
2018-07-31T13:54:17.775Z,45.45
2018-07-31T13:55:26.727Z,45.45
2018-07-31T13:56:35.350Z,45.45
2018-07-31T13:57:44.266Z,45.26
2018-07-31T13:58:52.926Z,45.75
2018-07-31T14:00:01.578Z,45.33
2018-07-31T14:01:10.242Z,45.75
2018-07-31T14:02:18.889Z,45.55
2018-07-31T14:03:27.548Z,46.04
2018-07-31T14:04:36.201Z,45.92
2018-07-31T14:05:44.868Z,45.92
2018-07-31T14:06:53.535Z,46.23
2018-07-31T14:08:02.186Z,46.31
2018-07-31T14:09:10.842Z,46.33
2018-07-31T14:10:19.542Z,46.62
2018-07-31T14:11:28.505Z,46.43
2018-07-31T14:12:37.193Z,45.55
2018-07-31T14:13:45.847Z,45.36
2018-07-31T14:14:54.468Z,45.23
2018-07-31T14:16:03.402Z,45.55
2018-07-31T14:17:12.053Z,45.72
2018-07-31T14:18:20.742Z,45.43
2018-07-31T14:19:29.362Z,45.72
2018-07-31T14:20:38.057Z,45.72
2018-07-31T14:21:46.986Z,45.36
2018-07-31T14:22:55.644Z,45.92
2018-07-31T14:24:04.291Z,45.84
2018-07-31T14:25:12.949Z,45.33
2018-07-31T14:26:21.609Z,45.84
2018-07-31T14:27:30.273Z,45.62
2018-07-31T14:28:38.925Z,45.72
2018-07-31T14:29:47.573Z,45.55
2018-07-31T14:30:56.321Z,45.43
2018-07-31T14:32:04.891Z,45.53
2018-07-31T14:33:13.554Z,46.41
2018-07-31T14:34:22.471Z,45.82
2018-07-31T14:35:31.131Z,45.43
2018-07-31T14:36:40.076Z,45.43
2018-07-31T14:37:49.015Z,45.43
2018-07-31T14:38:57.932Z,45.43
2018-07-31T14:40:06.592Z,46.89
2018-07-31T14:41:15.247Z,45.14
2018-07-31T14:42:23.911Z,45.62
2018-07-31T14:43:32.563Z,46.48
2018-07-31T14:44:41.224Z,46.78
2018-07-31T14:45:49.877Z,46.58
2018-07-31T14:46:58.531Z,46
2018-07-31T14:48:07.454Z,45.31